Time;durP1;ratioP1;P1;durP2;ratioP2;P2;SDS_P1;SDS_P2;PMS_P1;PMS_P2;Temp;Humidity;BMP_temperature;BMP_pressure;BME280_temperature;BME280_humidity;BME280_pressure;Samples;Min_cycle;Max_cycle;Signal;HPM_P1;HPM_P2
2022/12/26 00:00:33;;;;;;;99.72;29.63;;;7.80;99.90;;;;;;5004581;28;20129;-66
2022/12/26 00:02:59;;;;;;;104.13;28.85;;;7.60;99.90;;;;;;5004730;28;20061;-66
2022/12/26 00:05:25;;;;;;;81.93;25.15;;;7.50;99.90;;;;;;5007579;28;20084;-66
2022/12/26 00:07:50;;;;;;;87.05;26.42;;;7.80;99.90;;;;;;5006737;28;20045;-66
2022/12/26 00:10:16;;;;;;;104.88;27.73;;;7.80;99.90;;;;;;5007930;28;20045;-66
2022/12/26 00:12:42;;;;;;;96.30;27.48;;;7.80;99.90;;;;;;5008464;28;20046;-66
2022/12/26 00:15:07;;;;;;;102.28;28.70;;;7.60;99.90;;;;;;5008814;28;20042;-66
2022/12/26 00:17:33;;;;;;;117.45;28.83;;;7.60;99.90;;;;;;5009269;28;20050;-66
2022/12/26 00:19:59;;;;;;;106.93;28.85;;;7.60;99.90;;;;;;5008984;28;20052;-66
2022/12/26 00:22:25;;;;;;;79.53;25.80;;;7.50;99.90;;;;;;5019458;28;20046;-66
2022/12/26 00:24:50;;;;;;;114.22;29.63;;;7.60;99.90;;;;;;5008408;28;20117;-64
2022/12/26 00:27:16;;;;;;;110.30;29.00;;;7.60;99.90;;;;;;5009401;28;20042;-63
2022/12/26 00:29:42;;;;;;;103.97;27.90;;;7.80;99.90;;;;;;5008508;28;20054;-63
2022/12/26 00:32:07;;;;;;;84.43;26.85;;;7.90;99.90;;;;;;5009340;28;20073;-63
2022/12/26 00:34:33;;;;;;;106.20;28.75;;;7.70;99.90;;;;;;5008620;28;20099;-64
2022/12/26 00:36:58;;;;;;;91.28;26.58;;;7.60;99.90;;;;;;5008578;28;20054;-63
2022/12/26 00:39:24;;;;;;;98.38;27.25;;;7.60;99.90;;;;;;5007749;28;20677;-64
2022/12/26 00:41:50;;;;;;;91.68;27.13;;;7.70;99.90;;;;;;5009138;28;20085;-64
2022/12/26 00:44:15;;;;;;;103.03;28.95;;;7.60;99.90;;;;;;5008893;28;20060;-64
2022/12/26 00:46:41;;;;;;;89.57;27.63;;;7.60;99.90;;;;;;5007217;28;20112;-64
2022/12/26 00:49:06;;;;;;;82.40;27.63;;;7.70;99.90;;;;;;5008476;28;20552;-64
2022/12/26 00:51:32;;;;;;;92.45;26.33;;;7.60;99.90;;;;;;5008921;28;20120;-64
2022/12/26 00:53:58;;;;;;;110.85;28.17;;;7.60;99.90;;;;;;5008579;28;20045;-64
2022/12/26 00:56:23;;;;;;;133.63;30.45;;;7.60;99.90;;;;;;5006739;28;20046;-64
2022/12/26 00:58:49;;;;;;;130.77;30.48;;;7.60;99.90;;;;;;5008657;28;20469;-63
2022/12/26 01:01:20;;;;;;;96.93;27.55;;;7.60;99.90;;;;;;5008293;28;20646;-63
2022/12/26 01:03:47;;;;;;;75.82;24.50;;;7.70;99.90;;;;;;5008363;28;20049;-64
2022/12/26 01:06:13;;;;;;;83.25;25.42;;;7.90;99.90;;;;;;5008437;28;20133;-64
2022/12/26 01:08:39;;;;;;;73.18;23.85;;;7.80;99.90;;;;;;5008683;28;20050;-63
2022/12/26 01:11:08;;;;;;;71.35;21.60;;;7.70;99.90;;;;;;5007538;28;20038;-63
2022/12/26 01:13:35;;;;;;;61.60;21.90;;;7.60;99.90;;;;;;5008314;28;20574;-64
2022/12/26 01:16:01;;;;;;;58.75;19.65;;;7.90;99.90;;;;;;5007136;28;20124;-64
2022/12/26 01:18:27;;;;;;;68.90;23.80;;;7.60;99.90;;;;;;5007984;28;20125;-64
2022/12/26 01:20:58;;;;;;;67.38;22.85;;;7.80;99.90;;;;;;5010630;28;20050;-64
2022/12/26 01:23:24;;;;;;;63.53;23.23;;;7.70;99.90;;;;;;5019409;28;20052;-64
2022/12/26 01:25:50;;;;;;;58.45;21.65;;;7.70;99.90;;;;;;5027111;28;20049;-63
2022/12/26 01:28:15;;;;;;;68.38;23.15;;;7.80;99.90;;;;;;5027490;28;20045;-64
2022/12/26 01:30:41;;;;;;;64.30;22.98;;;7.90;99.90;;;;;;5027626;28;20041;-64
2022/12/26 01:33:06;;;;;;;67.70;23.33;;;7.70;99.90;;;;;;5026994;28;20498;-63
2022/12/26 01:35:33;;;;;;;58.78;22.30;;;7.70;99.90;;;;;;5026147;28;20041;-64
2022/12/26 01:37:58;;;;;;;58.72;21.83;;;7.80;99.90;;;;;;5027311;28;20071;-63
2022/12/26 01:40:24;;;;;;;65.75;23.77;;;7.70;99.90;;;;;;5026742;28;20045;-63
2022/12/26 01:42:50;;;;;;;66.00;24.35;;;7.70;99.90;;;;;;5026957;28;20033;-63
2022/12/26 01:45:30;;;;;;;60.70;23.85;;;7.60;99.90;;;;;;5027623;28;20049;-63
2022/12/26 01:48:02;;;;;;;61.83;24.40;;;7.80;99.90;;;;;;5027237;28;20083;-64
2022/12/26 01:50:43;;;;;;;61.00;24.05;;;7.80;99.90;;;;;;5027282;28;20072;-63
2022/12/26 01:53:28;;;;;;;56.40;22.92;;;7.70;99.90;;;;;;5027084;28;20049;-63
2022/12/26 01:56:01;;;;;;;45.20;18.30;;;7.70;99.90;;;;;;5025177;28;20504;-63
2022/12/26 01:58:37;;;;;;;47.97;20.45;;;7.70;99.90;;;;;;5027185;28;20049;-63
2022/12/26 02:01:06;;;;;;;49.22;19.48;;;7.90;99.90;;;;;;5026561;28;20060;-63
2022/12/26 02:06:28;;;;;;;50.25;21.38;;;8.10;99.90;;;;;;4955599;28;20059;-63
2022/12/26 02:09:12;;;;;;;44.40;19.95;;;8.00;99.90;;;;;;4988448;23;20113;-66
2022/12/26 02:11:47;;;;;;;41.58;19.65;;;7.90;99.90;;;;;;4987416;28;20046;-66
2022/12/26 02:14:13;;;;;;;52.38;22.67;;;8.10;99.90;;;;;;4986623;28;20050;-65
2022/12/26 02:16:39;;;;;;;53.47;22.50;;;7.70;99.90;;;;;;4987040;28;20050;-66
2022/12/26 02:19:18;;;;;;;43.65;19.55;;;7.70;99.90;;;;;;4985895;28;20038;-66
2022/12/26 02:21:54;;;;;;;43.47;18.23;;;8.00;99.90;;;;;;4980241;28;20069;-66
2022/12/26 02:25:05;;;;;;;42.53;17.35;;;8.10;99.90;;;;;;4967479;28;20051;-65
2022/12/26 02:27:49;;;;;;;41.65;17.13;;;8.10;99.90;;;;;;4967545;28;20050;-65
2022/12/26 02:30:38;;;;;;;40.00;18.27;;;8.00;99.90;;;;;;4968178;28;20047;-65
2022/12/26 02:33:13;;;;;;;46.03;21.15;;;7.80;99.90;;;;;;4967499;28;20129;-66
2022/12/26 02:35:54;;;;;;;45.38;20.67;;;8.00;99.90;;;;;;4967862;28;20685;-66
2022/12/26 02:38:28;;;;;;;45.33;19.83;;;8.10;99.90;;;;;;4967616;28;20039;-66
2022/12/26 02:41:21;;;;;;;43.58;20.10;;;8.10;99.90;;;;;;4966095;28;20142;-66
2022/12/26 02:47:19;;;;;;;41.10;20.30;;;7.70;99.90;;;;;;4954632;28;20141;-66
2022/12/26 03:13:16;;;;;;;31.47;16.40;;;8.00;99.90;;;;;;4966536;28;20054;-65
2022/12/26 03:18:49;;;;;;;34.90;17.83;;;8.20;99.90;;;;;;4966398;28;20054;-67
2022/12/26 03:21:21;;;;;;;25.42;12.70;;;7.80;99.90;;;;;;4971334;28;20078;-66
2022/12/26 03:23:50;;;;;;;31.90;16.17;;;7.80;99.90;;;;;;4970879;28;20049;-66
2022/12/26 03:26:39;;;;;;;32.85;16.50;;;8.10;99.90;;;;;;4966438;28;20093;-63
2022/12/26 03:31:56;;;;;;;31.92;16.70;;;8.20;99.90;;;;;;4966421;28;20453;-63
2022/12/26 03:34:22;;;;;;;32.83;17.10;;;8.00;99.90;;;;;;4967298;28;20129;-63
2022/12/26 03:36:59;;;;;;;30.40;16.50;;;8.20;99.90;;;;;;4966507;28;20058;-63
2022/12/26 04:44:04;;;;;;;49.33;27.35;;;8.40;99.90;;;;;;4984497;28;20050;-63
2022/12/26 04:46:33;;;;;;;36.67;19.38;;;8.50;99.90;;;;;;4985994;28;20053;-63
2022/12/26 04:51:45;;;;;;;36.03;18.40;;;8.70;99.90;;;;;;4988322;28;20042;-63
2022/12/26 04:54:11;;;;;;;41.13;21.02;;;8.60;99.90;;;;;;4988456;28;20126;-63
2022/12/26 04:56:37;;;;;;;40.92;20.58;;;8.10;99.90;;;;;;4989187;28;20046;-64
2022/12/26 04:59:02;;;;;;;38.90;20.27;;;8.70;99.90;;;;;;4989387;28;20046;-63
2022/12/26 05:09:52;;;;;;;44.63;25.67;;;8.50;99.90;;;;;;4988328;28;20116;-63
2022/12/26 05:12:17;;;;;;;42.45;24.30;;;8.50;99.90;;;;;;4988956;28;20508;-63
2022/12/26 05:14:43;;;;;;;39.83;22.73;;;8.40;99.90;;;;;;4988324;28;20043;-64
2022/12/26 05:31:01;;;;;;;36.03;22.67;;;8.70;99.90;;;;;;4988705;28;20053;-63
2022/12/26 05:36:13;;;;;;;34.17;19.40;;;8.50;99.90;;;;;;4988561;28;20054;-63
2022/12/26 05:38:39;;;;;;;34.72;23.02;;;8.80;99.90;;;;;;4987892;28;20318;-63
2022/12/26 05:41:05;;;;;;;36.13;22.60;;;8.40;99.90;;;;;;4988741;28;20077;-63
2022/12/26 05:43:31;;;;;;;25.95;15.07;;;8.40;99.90;;;;;;4987679;28;20526;-63
2022/12/26 05:45:57;;;;;;;33.40;24.67;;;8.50;99.90;;;;;;4987095;28;20093;-63
2022/12/26 05:48:23;;;;;;;26.58;17.17;;;8.80;99.90;;;;;;4988187;28;20459;-66
2022/12/26 05:50:48;;;;;;;30.92;20.88;;;8.80;99.90;;;;;;4987658;28;20049;-66
2022/12/26 05:53:14;;;;;;;27.48;18.92;;;8.40;99.90;;;;;;4987829;28;20042;-66
2022/12/26 05:55:40;;;;;;;19.15;11.68;;;8.50;99.90;;;;;;4988100;28;20125;-66
2022/12/26 05:58:06;;;;;;;30.52;22.33;;;8.80;99.90;;;;;;4986850;28;20539;-66
2022/12/26 06:00:31;;;;;;;30.60;21.25;;;8.80;99.90;;;;;;4987970;28;20168;-66
2022/12/26 06:03:01;;;;;;;31.15;21.13;;;8.60;99.90;;;;;;4987185;28;20539;-66
2022/12/26 06:05:27;;;;;;;26.98;18.75;;;8.50;99.90;;;;;;4987761;28;20535;-66
2022/12/26 06:07:53;;;;;;;26.52;17.90;;;8.40;99.90;;;;;;4986914;28;20074;-66
2022/12/26 06:10:19;;;;;;;29.73;22.70;;;8.80;99.90;;;;;;4987329;28;20527;-66
2022/12/26 06:12:45;;;;;;;30.27;20.63;;;8.50;99.90;;;;;;4987735;28;20053;-66
2022/12/26 06:15:11;;;;;;;23.17;16.50;;;8.70;99.90;;;;;;4987070;28;20043;-66
2022/12/26 06:17:37;;;;;;;31.42;23.42;;;8.50;99.90;;;;;;4987743;28;20453;-66
2022/12/26 06:20:03;;;;;;;31.00;22.80;;;8.40;99.90;;;;;;4986359;28;20149;-66
2022/12/26 06:22:29;;;;;;;26.58;19.60;;;8.30;99.90;;;;;;4977900;28;20121;-64
2022/12/26 06:24:55;;;;;;;27.98;21.00;;;8.20;99.90;;;;;;4967235;28;20189;-63
2022/12/26 06:27:21;;;;;;;28.42;20.85;;;8.80;99.90;;;;;;4967735;28;20105;-63
2022/12/26 06:29:47;;;;;;;26.13;16.80;;;8.30;99.90;;;;;;4966545;28;20097;-63
2022/12/26 06:32:13;;;;;;;29.10;20.35;;;8.40;99.90;;;;;;4982177;28;20043;-63
2022/12/26 06:34:38;;;;;;;23.55;12.70;;;8.60;99.90;;;;;;4968059;28;20042;-63
2022/12/26 06:37:04;;;;;;;24.73;16.15;;;8.60;99.90;;;;;;4967483;28;20129;-63
2022/12/26 06:39:29;;;;;;;26.65;18.05;;;8.60;99.90;;;;;;4966652;28;20042;-63
2022/12/26 06:41:55;;;;;;;26.85;20.90;;;8.70;99.90;;;;;;4967955;28;20058;-63
2022/12/26 06:44:21;;;;;;;23.80;16.63;;;8.20;99.90;;;;;;4967469;28;20098;-63
2022/12/26 06:46:46;;;;;;;28.23;20.27;;;8.50;99.90;;;;;;4967588;28;20497;-63
2022/12/26 06:49:12;;;;;;;25.83;19.23;;;8.70;99.90;;;;;;4966167;28;20516;-63
2022/12/26 06:51:38;;;;;;;26.52;20.25;;;8.70;99.90;;;;;;4967335;28;20047;-63
2022/12/26 06:54:04;;;;;;;27.23;19.90;;;8.60;99.90;;;;;;4966498;28;20149;-63
2022/12/26 06:56:31;;;;;;;30.63;21.77;;;8.70;99.90;;;;;;4966577;28;20110;-63
2022/12/26 06:59:02;;;;;;;31.23;21.20;;;8.60;99.90;;;;;;4967537;28;20050;-63
2022/12/26 07:01:30;;;;;;;25.98;19.08;;;8.70;99.90;;;;;;4967234;28;20156;-63
2022/12/26 07:03:56;;;;;;;33.00;20.10;;;8.30;99.90;;;;;;4966361;28;20035;-63
2022/12/26 07:06:29;;;;;;;26.13;14.93;;;8.30;99.90;;;;;;4967005;28;20138;-63
2022/12/26 07:09:06;;;;;;;31.15;21.13;;;8.60;99.90;;;;;;4966089;28;20520;-63
2022/12/26 07:11:35;;;;;;;18.35;12.10;;;8.30;99.90;;;;;;4965710;28;20054;-63
2022/12/26 07:14:01;;;;;;;22.42;12.07;;;8.30;99.90;;;;;;4966260;28;20478;-63
2022/12/26 07:16:27;;;;;;;26.13;19.70;;;8.50;99.90;;;;;;4965493;28;20053;-63
2022/12/26 07:18:54;;;;;;;29.30;18.63;;;8.80;99.90;;;;;;4966735;28;20474;-66
2022/12/26 07:21:21;;;;;;;25.15;17.40;;;8.80;99.90;;;;;;4972824;28;20046;-66
2022/12/26 07:23:47;;;;;;;24.40;16.13;;;8.60;99.90;;;;;;4971638;28;20051;-66
2022/12/26 07:26:13;;;;;;;25.48;17.30;;;8.50;99.90;;;;;;4966833;28;20474;-66
2022/12/26 07:28:38;;;;;;;26.90;15.95;;;8.80;99.90;;;;;;4966875;28;20121;-66
2022/12/26 07:31:04;;;;;;;26.42;17.55;;;8.40;99.90;;;;;;4967038;28;20612;-66
2022/12/26 07:33:30;;;;;;;17.98;9.98;;;8.80;99.90;;;;;;4966645;28;20047;-66
2022/12/26 07:36:04;;;;;;;25.73;18.45;;;8.40;99.90;;;;;;4966799;28;20042;-66
2022/12/26 07:38:31;;;;;;;23.20;17.00;;;8.80;99.90;;;;;;4966011;28;20042;-66
2022/12/26 07:40:57;;;;;;;25.63;17.25;;;8.80;99.90;;;;;;4966453;28;20494;-66
2022/12/26 07:43:24;;;;;;;22.95;14.25;;;8.50;99.90;;;;;;4966531;28;20043;-66
2022/12/26 07:45:51;;;;;;;22.30;15.25;;;8.40;99.90;;;;;;4965756;28;20135;-64
2022/12/26 07:48:17;;;;;;;21.35;15.10;;;8.50;99.90;;;;;;4965349;28;20098;-66
2022/12/26 07:50:46;;;;;;;17.90;12.75;;;8.40;99.90;;;;;;4967194;28;20093;-65
2022/12/26 07:53:13;;;;;;;18.75;12.93;;;8.50;99.90;;;;;;4966174;28;20359;-66
2022/12/26 07:55:39;;;;;;;19.75;15.05;;;8.70;99.90;;;;;;4966732;28;20600;-65
2022/12/26 07:58:04;;;;;;;17.35;13.35;;;8.60;99.90;;;;;;4965868;28;20053;-65
2022/12/26 08:00:30;;;;;;;17.25;12.95;;;8.90;99.90;;;;;;4966406;28;20046;-66
2022/12/26 08:02:56;;;;;;;18.73;13.23;;;8.70;99.90;;;;;;4966716;28;20054;-66
2022/12/26 08:05:21;;;;;;;18.80;11.60;;;8.90;99.90;;;;;;4966080;28;20150;-65
2022/12/26 08:07:48;;;;;;;17.83;12.80;;;8.80;99.90;;;;;;4982726;28;20081;-66
2022/12/26 08:10:15;;;;;;;15.60;10.23;;;9.00;99.90;;;;;;4985818;28;20042;-65
2022/12/26 08:12:40;;;;;;;13.98;9.30;;;8.70;99.90;;;;;;4985660;28;20373;-65
2022/12/26 08:15:06;;;;;;;17.27;11.90;;;8.80;99.90;;;;;;4985909;28;20043;-65
2022/12/26 08:17:32;;;;;;;16.67;10.88;;;9.00;99.90;;;;;;4985857;28;20050;-65
2022/12/26 08:19:58;;;;;;;19.92;11.75;;;8.90;99.90;;;;;;4985161;28;20046;-63
2022/12/26 08:22:23;;;;;;;16.65;11.35;;;8.80;99.90;;;;;;4976739;28;20046;-63
2022/12/26 08:24:49;;;;;;;16.30;10.95;;;8.90;99.90;;;;;;4966679;28;20093;-63
2022/12/26 08:27:15;;;;;;;15.50;10.52;;;9.00;99.90;;;;;;4969765;28;20054;-63
2022/12/26 08:29:41;;;;;;;12.73;6.80;;;8.80;99.90;;;;;;4969545;28;20039;-63
2022/12/26 08:32:06;;;;;;;16.05;11.45;;;9.80;99.90;;;;;;4969438;28;20043;-63
2022/12/26 08:34:34;;;;;;;15.40;9.02;;;8.90;99.90;;;;;;4969890;28;20101;-63
2022/12/26 08:36:59;;;;;;;12.23;6.88;;;8.90;99.90;;;;;;4969805;28;20063;-63
2022/12/26 08:39:25;;;;;;;18.35;10.77;;;9.00;99.90;;;;;;4968564;28;20054;-63
2022/12/26 08:41:51;;;;;;;18.52;12.82;;;8.90;99.90;;;;;;4969772;28;20047;-63
2022/12/26 08:44:16;;;;;;;13.30;9.02;;;9.00;99.90;;;;;;4968766;28;20061;-63
2022/12/26 08:46:43;;;;;;;17.15;11.13;;;8.80;99.90;;;;;;4976798;28;20047;-63
2022/12/26 08:49:09;;;;;;;19.08;10.75;;;8.90;99.90;;;;;;4969580;28;20055;-63
2022/12/26 08:51:35;;;;;;;19.73;12.38;;;9.00;99.90;;;;;;4970102;28;20058;-63
2022/12/26 08:54:01;;;;;;;19.27;10.93;;;8.70;99.90;;;;;;4968429;28;20146;-63
2022/12/26 08:56:27;;;;;;;19.30;11.13;;;8.90;99.90;;;;;;4969274;28;20078;-63
2022/12/26 08:58:53;;;;;;;13.55;8.90;;;8.70;99.90;;;;;;4969390;28;20113;-63
2022/12/26 09:01:21;;;;;;;18.60;12.35;;;8.70;99.90;;;;;;4969430;28;20470;-63
2022/12/26 09:03:47;;;;;;;14.55;9.07;;;8.90;99.90;;;;;;4967935;28;20113;-63
2022/12/26 09:06:14;;;;;;;14.65;9.95;;;8.80;99.90;;;;;;4968369;28;20055;-63
2022/12/26 09:08:40;;;;;;;14.10;11.18;;;9.00;99.90;;;;;;4967029;28;20614;-63
2022/12/26 09:11:09;;;;;;;14.93;8.55;;;8.80;99.90;;;;;;4968662;28;20387;-63
2022/12/26 09:13:35;;;;;;;20.30;10.85;;;9.10;99.90;;;;;;4969118;28;20137;-63
2022/12/26 09:16:14;;;;;;;12.93;7.65;;;8.80;99.90;;;;;;4968753;28;20046;-63
2022/12/26 09:18:41;;;;;;;16.33;11.63;;;9.10;99.90;;;;;;4968657;28;20280;-62
2022/12/26 09:21:10;;;;;;;13.50;8.75;;;9.10;99.90;;;;;;4972081;28;20076;-62
2022/12/26 09:23:37;;;;;;;11.27;6.85;;;9.10;99.90;;;;;;4973842;28;20105;-64
2022/12/26 09:26:08;;;;;;;12.48;7.95;;;8.90;99.90;;;;;;4968140;28;20409;-65
2022/12/26 09:28:34;;;;;;;13.60;9.90;;;9.20;99.90;;;;;;4968321;28;20073;-63
2022/12/26 09:31:02;;;;;;;16.90;10.60;;;8.90;99.90;;;;;;4968529;28;20390;-63
2022/12/26 09:33:29;;;;;;;11.38;7.85;;;9.00;99.90;;;;;;4968023;28;20102;-62
2022/12/26 09:35:55;;;;;;;9.88;5.68;;;8.90;99.90;;;;;;4967958;28;20050;-62
2022/12/26 09:38:21;;;;;;;12.68;7.65;;;9.20;99.90;;;;;;4966884;28;20122;-62
2022/12/26 09:40:59;;;;;;;18.08;10.90;;;9.10;99.90;;;;;;4967782;28;20823;-63
2022/12/26 09:43:49;;;;;;;15.13;9.00;;;9.10;99.90;;;;;;4967609;28;20062;-64
2022/12/26 09:46:31;;;;;;;12.80;9.05;;;9.00;99.90;;;;;;4968525;28;20113;-63
2022/12/26 09:49:00;;;;;;;10.75;6.45;;;8.90;99.90;;;;;;4979280;28;20377;-63
2022/12/26 09:51:28;;;;;;;13.80;7.57;;;9.00;99.90;;;;;;4978992;28;20081;-63
2022/12/26 09:53:54;;;;;;;11.40;7.78;;;8.70;99.90;;;;;;4977026;28;20042;-64
2022/12/26 09:56:22;;;;;;;10.73;6.68;;;9.00;99.90;;;;;;4973248;28;20138;-64
2022/12/26 09:58:59;;;;;;;9.63;7.10;;;8.80;99.90;;;;;;4978466;28;20097;-63
2022/12/26 10:01:33;;;;;;;9.30;6.00;;;8.90;99.90;;;;;;4978865;28;20042;-64
2022/12/26 10:04:00;;;;;;;7.43;4.30;;;9.00;99.90;;;;;;4978364;28;20034;-64
2022/12/26 10:06:45;;;;;;;11.30;6.05;;;9.20;99.90;;;;;;4987433;28;20566;-63
2022/12/26 10:09:29;;;;;;;8.27;5.05;;;9.10;99.90;;;;;;4968334;28;20054;-63
2022/12/26 10:12:04;;;;;;;10.20;5.82;;;9.00;99.90;;;;;;4987053;28;20054;-64
2022/12/26 10:14:56;;;;;;;16.38;10.40;;;9.30;99.90;;;;;;4984837;28;20088;-64
2022/12/26 10:17:40;;;;;;;16.45;12.20;;;9.00;99.90;;;;;;4965553;28;20054;-64
2022/12/26 10:20:21;;;;;;;15.52;9.25;;;8.90;99.90;;;;;;4983093;28;20042;-64
2022/12/26 10:23:08;;;;;;;11.68;6.28;;;8.90;99.90;;;;;;4977143;28;20056;-63
2022/12/26 10:25:47;;;;;;;10.02;4.03;;;9.00;99.90;;;;;;4986251;28;20046;-64
2022/12/26 10:28:36;;;;;;;9.45;2.45;;;9.00;99.90;;;;;;4986152;28;20137;-64
2022/12/26 10:31:12;;;;;;;11.25;2.28;;;8.50;99.90;;;;;;4965901;28;20093;-64
2022/12/26 10:34:03;;;;;;;10.00;2.45;;;8.50;99.90;;;;;;4967161;28;20082;-64
2022/12/26 10:36:34;;;;;;;12.00;2.72;;;8.20;99.90;;;;;;4965596;28;20050;-64
2022/12/26 10:39:04;;;;;;;8.85;1.88;;;8.30;99.90;;;;;;4973463;28;20034;-64
2022/12/26 10:41:43;;;;;;;14.02;2.35;;;8.30;99.90;;;;;;4985621;28;20050;-64
2022/12/26 10:44:11;;;;;;;13.93;2.28;;;8.10;99.90;;;;;;4986291;28;20056;-64
2022/12/26 10:47:00;;;;;;;11.07;2.42;;;8.00;99.90;;;;;;4985792;28;20128;-64
2022/12/26 10:49:26;;;;;;;12.27;2.30;;;8.00;99.90;;;;;;4985266;28;20382;-64
2022/12/26 10:51:55;;;;;;;8.32;2.72;;;7.90;99.90;;;;;;4985812;28;20038;-64
2022/12/26 10:54:21;;;;;;;10.52;2.00;;;7.90;99.90;;;;;;4985857;28;20039;-64
2022/12/26 10:56:49;;;;;;;13.07;2.15;;;7.70;99.90;;;;;;4980196;28;20057;-64
2022/12/26 10:59:21;;;;;;;16.40;2.58;;;7.70;99.90;;;;;;4985562;28;20046;-64
2022/12/26 11:01:47;;;;;;;8.25;2.00;;;7.70;99.90;;;;;;4986240;28;20418;-64
2022/12/26 11:04:21;;;;;;;10.10;2.85;;;7.70;99.90;;;;;;4986107;28;20540;-64
2022/12/26 11:06:51;;;;;;;12.18;2.35;;;7.70;99.90;;;;;;4985978;28;20722;-64
2022/12/26 11:09:35;;;;;;;9.02;2.00;;;7.50;99.90;;;;;;4983826;28;20058;-64
2022/12/26 11:12:02;;;;;;;11.50;1.90;;;7.60;99.90;;;;;;4985632;28;20682;-64
2022/12/26 11:14:43;;;;;;;9.30;2.00;;;7.50;99.90;;;;;;4986090;28;20058;-63
2022/12/26 11:17:24;;;;;;;9.05;1.70;;;7.40;99.90;;;;;;4986145;28;20061;-63
2022/12/26 11:20:15;;;;;;;10.18;2.45;;;7.50;99.90;;;;;;4984280;28;20053;-63
2022/12/26 11:22:45;;;;;;;10.55;1.40;;;7.30;99.90;;;;;;4979092;28;20496;-64
2022/12/26 11:25:10;;;;;;;10.88;1.92;;;7.30;99.90;;;;;;4985086;28;20520;-61
2022/12/26 11:27:39;;;;;;;5.45;1.17;;;7.00;99.90;;;;;;4986135;28;20054;-64
2022/12/26 11:30:33;;;;;;;5.35;1.08;;;7.10;99.90;;;;;;4985753;28;20042;-64
2022/12/26 11:33:29;;;;;;;7.70;1.38;;;7.10;99.90;;;;;;4986566;28;20425;-65
2022/12/26 11:36:02;;;;;;;5.35;1.00;;;6.70;99.90;;;;;;4986713;28;20046;-62
2022/12/26 11:38:35;;;;;;;8.18;1.20;;;6.50;99.90;;;;;;4985374;28;20057;-63
2022/12/26 11:43:57;;;;;;;13.02;1.95;;;6.90;99.90;;;;;;4985780;28;20100;-66
2022/12/26 11:46:33;;;;;;;9.00;1.35;;;6.80;99.90;;;;;;4985857;28;20046;-66
2022/12/26 11:48:59;;;;;;;10.32;1.83;;;6.60;99.90;;;;;;4986243;28;20034;-66
2022/12/26 11:51:44;;;;;;;10.65;1.65;;;6.60;99.90;;;;;;4985477;28;20057;-66
2022/12/26 11:54:23;;;;;;;9.13;1.52;;;6.60;99.90;;;;;;4984345;28;20042;-66
2022/12/26 11:57:04;;;;;;;11.43;1.55;;;6.80;99.90;;;;;;4986009;28;20437;-66
2022/12/26 11:59:30;;;;;;;11.73;1.50;;;6.70;99.90;;;;;;4986487;28;20047;-66
2022/12/26 12:02:24;;;;;;;12.10;1.80;;;6.80;99.90;;;;;;4989934;28;20049;-66
2022/12/26 12:04:52;;;;;;;9.80;2.30;;;6.70;99.90;;;;;;4989807;28;20095;-66
2022/12/26 12:07:42;;;;;;;7.72;1.13;;;6.80;99.90;;;;;;4987322;28;20138;-67
2022/12/26 12:10:46;;;;;;;7.85;1.52;;;6.80;99.90;;;;;;4989940;28;20043;-66
2022/12/26 12:13:20;;;;;;;8.20;1.50;;;6.70;99.90;;;;;;4989542;28;20054;-66
2022/12/26 12:16:05;;;;;;;12.02;1.50;;;6.60;99.90;;;;;;4989188;28;20414;-66
2022/12/26 12:18:44;;;;;;;9.98;1.67;;;6.70;99.90;;;;;;4990069;28;20137;-66
2022/12/26 12:21:40;;;;;;;9.90;2.03;;;6.50;99.90;;;;;;4983808;28;20054;-66
2022/12/26 12:24:33;;;;;;;7.78;1.42;;;6.70;99.90;;;;;;4970411;28;20049;-66
2022/12/26 12:27:34;;;;;;;13.45;1.83;;;6.60;99.90;;;;;;4969082;28;20066;-66
2022/12/26 12:29:59;;;;;;;9.15;1.75;;;6.60;99.90;;;;;;4913144;29;20583;-66
2022/12/26 12:32:36;;;;;;;7.40;1.52;;;6.70;99.90;;;;;;4956560;28;20061;-66
2022/12/26 12:35:35;;;;;;;7.85;2.05;;;6.70;99.90;;;;;;4968605;28;20053;-66
2022/12/26 12:38:21;;;;;;;9.95;1.95;;;6.70;99.90;;;;;;4967544;28;20058;-66
2022/12/26 12:41:05;;;;;;;11.70;1.77;;;6.60;99.90;;;;;;4968735;28;20063;-66
2022/12/26 12:44:04;;;;;;;14.23;2.20;;;6.60;99.90;;;;;;4970136;28;20050;-66
2022/12/26 12:46:40;;;;;;;14.38;2.20;;;6.60;99.90;;;;;;4965645;28;20063;-66
2022/12/26 12:49:08;;;;;;;12.15;2.03;;;6.70;99.90;;;;;;4968407;28;20055;-66
2022/12/26 12:51:42;;;;;;;10.50;2.30;;;6.70;99.90;;;;;;4969524;28;20055;-66
2022/12/26 12:54:46;;;;;;;9.15;2.00;;;6.80;99.90;;;;;;4967828;28;20051;-66
2022/12/26 12:57:23;;;;;;;9.23;2.17;;;6.70;99.90;;;;;;4959333;28;20047;-66
2022/12/26 13:00:18;;;;;;;14.20;2.20;;;6.70;99.90;;;;;;4969726;28;20082;-66
2022/12/26 13:02:51;;;;;;;12.38;1.98;;;6.70;99.90;;;;;;4984885;28;20047;-66
2022/12/26 13:05:37;;;;;;;11.38;2.42;;;6.70;99.90;;;;;;4969773;28;20055;-66
2022/12/26 13:08:11;;;;;;;11.13;2.10;;;6.70;99.90;;;;;;4983811;28;20069;-66
2022/12/26 13:10:46;;;;;;;13.93;2.55;;;6.70;99.90;;;;;;4968425;28;20051;-66
2022/12/26 13:13:29;;;;;;;12.82;2.35;;;6.70;99.90;;;;;;4983839;28;20051;-67
2022/12/26 13:16:10;;;;;;;13.15;2.63;;;6.70;99.90;;;;;;4968848;28;20047;-66
2022/12/26 13:18:41;;;;;;;18.75;2.53;;;6.70;99.90;;;;;;4984181;28;20057;-66
2022/12/26 13:21:11;;;;;;;14.15;2.70;;;6.70;99.90;;;;;;4973022;28;20541;-66
2022/12/26 13:26:40;;;;;;;12.85;2.20;;;6.70;99.90;;;;;;4969168;28;20070;-66
2022/12/26 13:29:34;;;;;;;16.40;2.80;;;6.70;99.90;;;;;;4967799;28;20046;-66
2022/12/26 13:32:03;;;;;;;9.18;2.13;;;6.70;99.90;;;;;;4965959;28;20145;-66
2022/12/26 13:34:30;;;;;;;11.55;2.33;;;6.80;99.90;;;;;;4984414;28;20043;-66
2022/12/26 13:36:58;;;;;;;14.18;2.80;;;6.80;99.90;;;;;;4968915;28;20046;-66
2022/12/26 13:39:24;;;;;;;12.75;2.38;;;6.90;99.90;;;;;;4983195;28;20154;-66
2022/12/26 13:44:43;;;;;;;16.13;2.35;;;6.80;99.90;;;;;;4967159;28;20139;-66
2022/12/26 13:47:34;;;;;;;13.77;2.88;;;6.70;99.90;;;;;;4968546;28;20125;-66
2022/12/26 13:50:37;;;;;;;12.68;2.40;;;6.70;99.90;;;;;;4967293;28;20057;-66
2022/12/26 13:53:06;;;;;;;11.57;2.05;;;6.60;99.90;;;;;;4966703;28;20050;-66
2022/12/26 13:55:42;;;;;;;11.55;2.20;;;6.60;99.90;;;;;;4967939;28;20455;-66
2022/12/26 13:58:33;;;;;;;12.10;2.45;;;6.60;99.90;;;;;;4968721;28;20042;-66
2022/12/26 14:01:18;;;;;;;15.02;2.40;;;6.70;99.90;;;;;;4968638;28;20050;-66
2022/12/26 14:04:28;;;;;;;16.05;2.75;;;6.70;99.90;;;;;;4966701;28;20046;-66
2022/12/26 14:07:29;;;;;;;9.55;2.35;;;6.60;99.90;;;;;;4909990;29;20949;-67
2022/12/26 14:10:23;;;;;;;15.48;2.85;;;6.60;99.90;;;;;;4971785;28;20057;-66
2022/12/26 14:13:04;;;;;;;12.88;2.47;;;6.50;99.90;;;;;;4973596;28;20043;-66
2022/12/26 14:15:51;;;;;;;14.48;2.38;;;6.50;99.90;;;;;;4974149;28;20159;-66
2022/12/26 14:18:28;;;;;;;10.25;2.22;;;6.50;99.90;;;;;;4972324;28;20097;-66
2022/12/26 14:21:12;;;;;;;14.30;2.53;;;6.40;99.90;;;;;;4980271;28;20046;-66
2022/12/26 14:23:41;;;;;;;12.88;2.53;;;6.40;99.90;;;;;;4971687;28;20067;-66
2022/12/26 14:26:31;;;;;;;14.82;2.85;;;6.30;99.90;;;;;;4979855;28;20051;-66
2022/12/26 14:29:14;;;;;;;12.23;2.10;;;6.30;99.90;;;;;;4971732;28;20053;-66
2022/12/26 14:32:05;;;;;;;12.82;2.38;;;6.20;99.90;;;;;;4972821;28;20097;-67
2022/12/26 14:35:05;;;;;;;15.82;1.95;;;6.10;99.90;;;;;;4979992;28;20093;-66
2022/12/26 14:37:43;;;;;;;11.80;2.20;;;6.10;99.90;;;;;;4978662;28;20650;-66
2022/12/26 14:40:35;;;;;;;12.73;2.58;;;6.00;99.90;;;;;;4974136;28;20053;-66
2022/12/26 14:43:09;;;;;;;11.35;2.60;;;6.00;99.90;;;;;;4980393;28;20039;-66
2022/12/26 14:45:35;;;;;;;13.15;2.83;;;5.90;99.90;;;;;;4973289;28;20057;-66
2022/12/26 14:48:21;;;;;;;14.57;2.63;;;5.80;99.90;;;;;;4973632;28;20054;-66
2022/12/26 14:50:54;;;;;;;14.00;3.42;;;5.80;99.90;;;;;;4973309;28;20046;-66
2022/12/26 14:53:28;;;;;;;14.82;2.90;;;5.70;99.90;;;;;;4970842;28;20125;-66
2022/12/26 14:56:02;;;;;;;14.32;2.30;;;5.60;99.90;;;;;;4972156;28;20046;-66
2022/12/26 14:58:37;;;;;;;15.27;2.90;;;5.60;99.90;;;;;;4973445;28;20038;-66
2022/12/26 15:01:09;;;;;;;14.10;2.60;;;5.50;99.90;;;;;;4972886;28;20043;-66
2022/12/26 15:03:44;;;;;;;20.13;3.60;;;5.50;99.90;;;;;;4973524;28;20050;-66
2022/12/26 15:06:26;;;;;;;12.40;2.58;;;5.50;99.90;;;;;;4972496;28;20044;-66
2022/12/26 15:09:10;;;;;;;14.27;2.40;;;5.50;99.90;;;;;;4972701;28;20054;-66
2022/12/26 15:11:42;;;;;;;14.50;2.83;;;5.40;99.90;;;;;;4980067;28;20493;-66
2022/12/26 15:14:11;;;;;;;19.67;4.72;;;5.50;99.90;;;;;;4973402;28;20114;-66
2022/12/26 15:16:47;;;;;;;18.95;4.63;;;5.30;99.90;;;;;;4978870;28;20054;-66
2022/12/26 15:19:24;;;;;;;15.27;3.65;;;5.30;99.90;;;;;;4973140;28;20056;-66
2022/12/26 15:22:32;;;;;;;12.70;3.30;;;5.20;99.90;;;;;;4971617;28;20038;-66
2022/12/26 15:25:33;;;;;;;14.50;3.20;;;5.20;99.90;;;;;;4953037;28;20137;-66
2022/12/26 15:28:01;;;;;;;16.65;3.83;;;5.10;99.90;;;;;;4971128;28;20046;-66